createdAt,value
2022-08-20T00:00:41.212Z,18.03
2022-08-20T00:03:20.101Z,15.30
2022-08-20T00:05:56.752Z,13.52
2022-08-20T00:08:23.546Z,17.17
2022-08-20T00:10:55.567Z,18.38
2022-08-20T00:13:26.795Z,19.47
2022-08-20T00:15:53.747Z,20.88
2022-08-20T00:18:21.931Z,15.38
2022-08-20T00:20:51.808Z,14.98
2022-08-20T00:23:18.978Z,16.13
2022-08-20T00:25:47.002Z,17.30
2022-08-20T00:28:13.952Z,21.23
2022-08-20T00:30:42.861Z,14.90
2022-08-20T00:33:13.106Z,22.52
2022-08-20T00:35:43.593Z,27.92
2022-08-20T00:38:10.682Z,20.93
2022-08-20T00:40:46.333Z,19.95
2022-08-20T00:43:35.946Z,20.73
2022-08-20T00:46:07.021Z,20.17
2022-08-20T00:48:36.215Z,20.17
2022-08-20T00:51:27.247Z,19.13
2022-08-20T00:54:04.393Z,17.63
2022-08-20T00:56:34.013Z,25.50
2022-08-20T00:59:01.370Z,23.58
2022-08-20T01:01:28.754Z,16.42
2022-08-20T01:04:00.096Z,28.23
2022-08-20T01:06:27.629Z,18.30
2022-08-20T01:08:54.260Z,24.05
2022-08-20T01:11:37.161Z,19.98
2022-08-20T01:14:34.699Z,20.48
2022-08-20T01:17:06.233Z,19.60
2022-08-20T01:19:41.073Z,24.85
2022-08-20T01:22:28.307Z,19.90
2022-08-20T01:25:08.636Z,22.52
2022-08-20T01:27:35.535Z,15.43
2022-08-20T01:30:10.226Z,21.33
2022-08-20T01:32:36.905Z,32.03
2022-08-20T01:35:04.580Z,23.75
2022-08-20T01:37:31.724Z,19.95
2022-08-20T01:39:59.003Z,27.75
2022-08-20T01:42:58.612Z,22.93
2022-08-20T01:45:30.442Z,24.67
2022-08-20T01:47:58.245Z,23.77
2022-08-20T01:50:28.247Z,21.52
2022-08-20T01:53:04.572Z,27.67
2022-08-20T01:55:32.457Z,26.93
2022-08-20T01:58:00.286Z,38.40
2022-08-20T02:00:27.740Z,32.95
2022-08-20T02:02:54.396Z,22.42
2022-08-20T02:05:21.161Z,29.23
2022-08-20T02:07:47.825Z,34.90
2022-08-20T02:10:16.556Z,22.10
2022-08-20T02:12:43.549Z,26.88
2022-08-20T02:15:11.367Z,28.10
2022-08-20T02:17:39.626Z,26.35
2022-08-20T02:20:15.912Z,27.17
2022-08-20T02:22:51.857Z,26.55
2022-08-20T02:25:20.913Z,29.05
2022-08-20T02:27:51.883Z,27.13
2022-08-20T02:30:28.353Z,33.10
2022-08-20T02:32:56.591Z,31.07
2022-08-20T02:35:23.702Z,37.03
2022-08-20T02:37:50.834Z,28.42
2022-08-20T02:40:27.063Z,39.03
2022-08-20T02:42:57.842Z,30.98
2022-08-20T02:45:24.579Z,28.00
2022-08-20T02:47:56.782Z,27.40
2022-08-20T02:50:24.713Z,22.08
2022-08-20T02:52:52.228Z,19.73
2022-08-20T02:55:27.233Z,21.00
2022-08-20T02:58:00.382Z,20.03
2022-08-20T03:00:32.118Z,17.65
2022-08-20T03:03:06.736Z,21.65
2022-08-20T03:05:33.315Z,15.38
2022-08-20T03:08:00.240Z,19.70
2022-08-20T03:10:32.132Z,20.43
2022-08-20T03:13:02.237Z,15.80
2022-08-20T03:15:34.291Z,15.15
2022-08-20T03:18:01.230Z,16.45
2022-08-20T03:20:29.017Z,15.82
2022-08-20T03:22:56.021Z,21.37
2022-08-20T03:25:23.281Z,16.13
2022-08-20T03:27:54.366Z,38.00
2022-08-20T03:30:25.043Z,19.38
2022-08-20T03:32:53.585Z,19.83
2022-08-20T03:35:22.878Z,45.93
2022-08-20T03:37:52.346Z,20.25
2022-08-20T03:40:31.923Z,22.58
2022-08-20T03:42:59.321Z,39.35
2022-08-20T03:45:29.695Z,25.75
2022-08-20T03:47:56.500Z,56.37
2022-08-20T03:50:27.216Z,21.77
2022-08-20T03:52:55.184Z,28.27
2022-08-20T03:55:23.028Z,20.00
2022-08-20T03:57:53.253Z,30.38
2022-08-20T04:00:24.236Z,24.07
2022-08-20T04:02:50.769Z,25.40
2022-08-20T04:05:17.573Z,22.58
2022-08-20T04:07:44.882Z,18.85
2022-08-20T04:10:13.900Z,20.70
2022-08-20T04:12:52.792Z,17.93
2022-08-20T04:15:20.757Z,35.33
2022-08-20T04:17:51.451Z,27.92
2022-08-20T04:20:22.838Z,29.98
2022-08-20T04:22:59.139Z,29.95
2022-08-20T04:25:29.698Z,11.67
2022-08-20T04:28:00.337Z,18.40
2022-08-20T04:30:28.550Z,14.48
2022-08-20T04:32:56.156Z,20.25
2022-08-20T04:35:24.946Z,36.63
2022-08-20T04:38:00.059Z,33.50
2022-08-20T04:40:45.597Z,35.50
2022-08-20T04:43:12.423Z,32.53
2022-08-20T04:45:39.931Z,30.90
2022-08-20T04:48:11.705Z,20.80
2022-08-20T04:50:43.728Z,15.27
2022-08-20T04:53:12.926Z,20.23
2022-08-20T04:55:43.067Z,23.52
2022-08-20T04:58:19.849Z,19.90
2022-08-20T05:00:51.984Z,17.25
2022-08-20T05:03:19.664Z,21.20
2022-08-20T05:05:47.221Z,19.88
2022-08-20T05:08:19.802Z,22.73
2022-08-20T05:10:47.486Z,21.95
2022-08-20T05:13:14.165Z,26.38
2022-08-20T05:15:41.064Z,22.87
2022-08-20T05:18:09.006Z,24.75
2022-08-20T05:20:40.555Z,23.02
2022-08-20T05:23:10.112Z,27.17
2022-08-20T05:25:38.249Z,25.83
2022-08-20T05:28:12.586Z,26.77
2022-08-20T05:30:45.824Z,25.73
2022-08-20T05:33:20.405Z,26.35
2022-08-20T05:35:49.365Z,26.15
2022-08-20T05:38:19.388Z,28.33
2022-08-20T05:40:46.513Z,29.63
2022-08-20T05:43:18.373Z,29.85
2022-08-20T05:46:00.582Z,30.17
2022-08-20T05:48:29.061Z,30.77
2022-08-20T05:50:58.534Z,30.83
2022-08-20T05:53:25.843Z,34.17
2022-08-20T05:56:03.817Z,31.60
2022-08-20T05:58:40.226Z,33.50
2022-08-20T06:01:08.243Z,30.83
2022-08-20T06:03:53.888Z,32.92
2022-08-20T06:09:02.501Z,53.30
2022-08-20T06:11:36.841Z,52.58
2022-08-20T06:14:06.880Z,53.72
2022-08-20T06:16:34.633Z,52.20
2022-08-20T06:19:05.819Z,59.80
2022-08-20T06:21:32.512Z,58.30
2022-08-20T06:24:01.877Z,71.55
2022-08-20T06:26:30.707Z,65.40
2022-08-20T06:29:00.335Z,76.05
2022-08-20T06:31:27.665Z,67.07
2022-08-20T06:33:54.937Z,64.57
2022-08-20T06:36:22.089Z,77.00
2022-08-20T06:38:48.988Z,74.55
2022-08-20T06:41:16.801Z,67.40
2022-08-20T06:43:43.546Z,68.50
2022-08-20T06:46:11.008Z,61.10
2022-08-20T06:48:38.198Z,60.58
2022-08-20T06:51:06.721Z,50.55
2022-08-20T06:53:33.876Z,53.92
2022-08-20T06:56:00.586Z,47.00
2022-08-20T06:58:36.325Z,38.47
2022-08-20T07:01:10.209Z,31.25
2022-08-20T07:03:55.096Z,34.08
2022-08-20T07:06:25.020Z,26.67
2022-08-20T07:08:51.763Z,26.03
2022-08-20T07:11:18.323Z,19.90
2022-08-20T07:13:45.428Z,22.23
2022-08-20T07:16:12.348Z,14.45
2022-08-20T07:18:38.881Z,12.43
2022-08-20T07:21:06.022Z,11.40
2022-08-20T07:23:33.231Z,18.92
2022-08-20T07:25:59.811Z,14.65
2022-08-20T07:28:32.028Z,11.85
2022-08-20T07:31:17.146Z,10.93
2022-08-20T07:33:47.047Z,11.90
2022-08-20T07:36:17.797Z,8.32
2022-08-20T07:38:46.994Z,9.85
2022-08-20T07:41:14.959Z,11.40
2022-08-20T07:43:45.639Z,10.60
2022-08-20T07:46:15.306Z,11.33
2022-08-20T07:48:46.337Z,9.57
2022-08-20T07:51:17.089Z,9.02
2022-08-20T07:53:45.726Z,7.97
2022-08-20T07:56:15.446Z,8.52
2022-08-20T07:58:49.745Z,9.00
2022-08-20T08:01:20.043Z,11.60
2022-08-20T08:03:49.917Z,7.65
2022-08-20T08:06:29.163Z,10.57
2022-08-20T08:09:10.031Z,9.75
2022-08-20T08:11:40.022Z,8.50
2022-08-20T08:14:09.564Z,9.05
2022-08-20T08:16:37.779Z,8.57
2022-08-20T08:19:08.997Z,11.18
2022-08-20T08:21:35.654Z,10.95
2022-08-20T08:24:02.607Z,8.37
2022-08-20T08:26:29.449Z,8.88
2022-08-20T08:28:58.091Z,9.52
2022-08-20T08:31:26.086Z,12.73
2022-08-20T08:33:52.717Z,9.85
2022-08-20T08:36:19.393Z,13.37
2022-08-20T08:38:46.473Z,9.88
2022-08-20T08:41:18.326Z,7.32
2022-08-20T08:43:48.081Z,14.45
2022-08-20T08:46:18.794Z,7.50
2022-08-20T08:48:48.359Z,10.53
2022-08-20T08:51:26.837Z,8.23
2022-08-20T08:53:54.818Z,8.52
2022-08-20T08:56:28.577Z,8.30
2022-08-20T08:59:08.539Z,11.52
2022-08-20T09:01:54.185Z,6.70
2022-08-20T09:04:23.442Z,7.65
2022-08-20T09:06:54.619Z,8.68
2022-08-20T09:09:35.566Z,6.50
2022-08-20T09:12:08.671Z,7.70
2022-08-20T09:14:35.979Z,5.63
2022-08-20T09:17:03.596Z,7.78
2022-08-20T09:19:30.313Z,5.13
2022-08-20T09:21:57.288Z,10.52
2022-08-20T09:24:24.161Z,8.23
2022-08-20T09:26:50.920Z,7.27
2022-08-20T09:29:18.092Z,6.65
2022-08-20T09:31:45.205Z,4.20
2022-08-20T09:34:13.179Z,5.82
2022-08-20T09:36:39.749Z,7.47
2022-08-20T09:39:06.450Z,9.20
2022-08-20T09:41:33.817Z,6.30
2022-08-20T09:44:01.573Z,4.35
2022-08-20T09:46:28.109Z,10.00
2022-08-20T09:48:55.483Z,8.18
2022-08-20T09:51:23.003Z,8.53
2022-08-20T09:53:50.165Z,5.63
2022-08-20T09:56:17.505Z,9.30
2022-08-20T09:58:51.286Z,6.05
2022-08-20T10:01:21.900Z,5.95
2022-08-20T10:03:49.485Z,9.87
2022-08-20T10:06:17.933Z,5.55
2022-08-20T10:08:44.700Z,7.13
2022-08-20T10:11:11.625Z,6.65
2022-08-20T10:13:38.186Z,5.10
2022-08-20T10:16:05.324Z,6.63
2022-08-20T10:18:31.865Z,6.25
2022-08-20T10:20:58.579Z,5.47
2022-08-20T10:23:25.320Z,7.75
2022-08-20T10:25:51.878Z,7.43
2022-08-20T10:28:18.472Z,7.60
2022-08-20T10:30:45.305Z,6.47
2022-08-20T10:33:11.836Z,8.57
2022-08-20T10:35:38.376Z,9.35
2022-08-20T10:38:04.919Z,5.82
2022-08-20T10:40:31.552Z,9.60
2022-08-20T10:42:58.102Z,8.25
2022-08-20T10:45:26.198Z,7.75
2022-08-20T10:47:52.993Z,6.63
2022-08-20T10:50:20.103Z,8.15
2022-08-20T10:52:47.298Z,4.73
2022-08-20T10:55:14.025Z,5.85
2022-08-20T10:57:41.629Z,6.32
2022-08-20T11:00:12.895Z,10.95
2022-08-20T11:02:39.775Z,7.63
2022-08-20T11:05:08.287Z,6.63
2022-08-20T11:07:50.695Z,9.98
2022-08-20T11:10:25.499Z,6.45
2022-08-20T11:12:52.252Z,8.48
2022-08-20T11:15:18.855Z,8.98
2022-08-20T11:17:45.717Z,7.47
2022-08-20T11:20:14.870Z,7.60
2022-08-20T11:22:41.507Z,9.40
2022-08-20T11:25:09.294Z,6.35
2022-08-20T11:27:39.142Z,6.25
2022-08-20T11:30:09.858Z,5.30
2022-08-20T11:32:36.746Z,6.80
2022-08-20T11:35:19.127Z,5.68
2022-08-20T11:37:52.266Z,6.18
2022-08-20T11:40:19.427Z,5.55
2022-08-20T11:43:12.631Z,8.27
2022-08-20T11:45:37.610Z,8.15
2022-08-20T11:48:05.149Z,5.78
2022-08-20T11:50:31.789Z,7.38
2022-08-20T11:52:58.563Z,7.85
2022-08-20T11:55:28.620Z,4.63
2022-08-20T11:57:59.914Z,4.82
2022-08-20T12:00:31.705Z,7.00
2022-08-20T12:03:00.553Z,6.35
2022-08-20T12:05:29.470Z,3.38
2022-08-20T12:07:56.534Z,4.60
2022-08-20T12:10:24.529Z,6.72
2022-08-20T12:12:51.165Z,6.68
2022-08-20T12:15:19.279Z,5.15
2022-08-20T12:17:45.949Z,6.97
2022-08-20T12:20:14.740Z,4.90
2022-08-20T12:22:42.165Z,4.47
2022-08-20T12:25:09.285Z,4.97
2022-08-20T12:27:37.856Z,4.90
2022-08-20T12:30:08.476Z,6.85
2022-08-20T12:32:35.639Z,2.83
2022-08-20T12:35:02.880Z,5.78
2022-08-20T12:37:31.805Z,4.75
2022-08-20T12:40:01.809Z,4.65
2022-08-20T12:42:32.202Z,4.47
2022-08-20T12:44:59.690Z,7.63
2022-08-20T12:47:29.544Z,7.18
2022-08-20T12:50:05.317Z,4.28
2022-08-20T12:52:33.530Z,4.05
2022-08-20T12:55:00.352Z,3.05
2022-08-20T12:57:33.518Z,5.80
2022-08-20T13:00:04.940Z,4.00
2022-08-20T13:02:31.819Z,8.52
2022-08-20T13:05:04.314Z,5.30
2022-08-20T13:07:33.241Z,3.10
2022-08-20T13:10:01.030Z,4.67
2022-08-20T13:12:28.237Z,5.88
2022-08-20T13:14:54.886Z,4.32
2022-08-20T13:17:33.614Z,5.75
2022-08-20T13:20:12.721Z,4.03
2022-08-20T13:22:40.589Z,5.07
2022-08-20T13:25:08.871Z,5.57
2022-08-20T13:27:41.732Z,4.50
2022-08-20T13:30:12.028Z,6.07
2022-08-20T13:32:38.833Z,4.80
2022-08-20T13:35:05.890Z,4.83
2022-08-20T13:37:32.641Z,4.93
2022-08-20T13:40:02.437Z,5.22
2022-08-20T13:42:29.090Z,4.90
2022-08-20T13:44:55.730Z,4.50
2022-08-20T13:47:28.183Z,5.30
2022-08-20T13:50:05.378Z,5.22
2022-08-20T13:52:32.908Z,3.78
2022-08-20T13:55:09.939Z,3.75
2022-08-20T13:57:36.537Z,5.78
2022-08-20T14:00:06.830Z,4.33
2022-08-20T14:02:33.520Z,9.27
2022-08-20T14:05:00.197Z,5.18
2022-08-20T14:07:32.555Z,4.00
2022-08-20T14:10:11.969Z,3.90
2022-08-20T14:12:38.563Z,3.70
2022-08-20T14:15:06.434Z,8.27
2022-08-20T14:17:36.649Z,4.60
2022-08-20T14:20:10.707Z,4.72
2022-08-20T14:22:37.423Z,2.85
2022-08-20T14:25:06.091Z,5.53
2022-08-20T14:27:34.046Z,3.17
2022-08-20T14:30:01.929Z,5.75
2022-08-20T14:32:29.064Z,3.83
2022-08-20T14:34:57.160Z,4.60
2022-08-20T14:37:28.502Z,5.07
2022-08-20T14:39:58.405Z,5.25
2022-08-20T14:42:28.099Z,4.55
2022-08-20T14:44:56.178Z,4.95
2022-08-20T14:47:27.791Z,4.70
2022-08-20T14:49:56.257Z,4.27
2022-08-20T14:52:24.329Z,8.88
2022-08-20T14:54:54.843Z,4.43
2022-08-20T14:57:22.141Z,4.20
2022-08-20T14:59:52.139Z,5.65
2022-08-20T15:02:19.127Z,2.13
2022-08-20T15:04:48.780Z,3.30
2022-08-20T15:07:33.659Z,4.30
2022-08-20T15:10:01.753Z,4.43
2022-08-20T15:12:29.339Z,4.65
2022-08-20T15:14:56.572Z,4.43
2022-08-20T15:17:29.109Z,4.72
2022-08-20T15:19:56.373Z,4.35
2022-08-20T15:22:24.444Z,5.05
2022-08-20T15:24:51.515Z,5.05
2022-08-20T15:27:24.966Z,5.10
2022-08-20T15:29:54.446Z,4.95
2022-08-20T15:32:21.466Z,5.63
2022-08-20T15:34:48.956Z,4.93
2022-08-20T15:37:21.501Z,3.58
2022-08-20T15:39:49.511Z,5.27
2022-08-20T15:42:17.661Z,3.67
2022-08-20T15:44:44.796Z,2.97
2022-08-20T15:47:29.675Z,4.90
2022-08-20T15:50:14.966Z,4.50
2022-08-20T15:52:43.676Z,3.83
2022-08-20T15:55:16.311Z,3.75
2022-08-20T15:58:18.367Z,5.40
2022-08-20T16:01:15.359Z,3.90
2022-08-20T16:04:16.725Z,5.22
2022-08-20T16:06:45.669Z,5.63
2022-08-20T16:09:49.355Z,3.53
2022-08-20T16:12:35.991Z,3.83
2022-08-20T16:15:09.528Z,7.43
2022-08-20T16:17:43.975Z,4.18
2022-08-20T16:20:22.236Z,6.70
2022-08-20T16:22:49.843Z,8.05
2022-08-20T16:25:22.899Z,4.85
2022-08-20T16:28:14.937Z,4.57
2022-08-20T16:30:51.119Z,3.85
2022-08-20T16:33:42.063Z,4.47
2022-08-20T16:36:23.685Z,5.13
2022-08-20T16:39:02.606Z,6.90
2022-08-20T16:41:34.838Z,6.15
2022-08-20T16:44:12.892Z,4.90
2022-08-20T16:46:49.324Z,4.83
2022-08-20T16:49:16.118Z,4.75
2022-08-20T16:51:52.334Z,5.55
2022-08-20T16:54:28.524Z,5.38
2022-08-20T16:57:04.541Z,8.07
2022-08-20T16:59:32.196Z,5.43
2022-08-20T17:02:10.403Z,4.57
2022-08-20T17:04:59.333Z,5.10
2022-08-20T17:07:57.302Z,7.05
2022-08-20T17:10:29.719Z,5.38
2022-08-20T17:12:59.952Z,7.60
2022-08-20T17:15:35.247Z,7.30
2022-08-20T17:18:28.420Z,5.35
2022-08-20T17:21:01.953Z,5.32
2022-08-20T17:23:30.791Z,7.63
2022-08-20T17:26:04.490Z,6.37
2022-08-20T17:28:35.167Z,5.05
2022-08-20T17:31:02.191Z,5.53
2022-08-20T17:33:33.256Z,5.50
2022-08-20T17:36:17.479Z,8.00
2022-08-20T17:38:58.990Z,8.57
2022-08-20T17:41:35.735Z,7.18
2022-08-20T17:44:21.077Z,4.03
2022-08-20T17:46:49.589Z,7.25
2022-08-20T17:49:32.945Z,7.63
2022-08-20T17:52:02.635Z,3.37
2022-08-20T17:54:39.273Z,3.35
2022-08-20T17:57:12.676Z,7.15
2022-08-20T18:00:00.723Z,6.15
2022-08-20T18:02:29.815Z,9.60
2022-08-20T18:04:56.700Z,4.40
2022-08-20T18:07:26.433Z,7.10
2022-08-20T18:10:14.092Z,7.65
2022-08-20T18:12:58.146Z,11.10
2022-08-20T18:15:29.495Z,6.40
2022-08-20T18:18:27.859Z,9.33
2022-08-20T18:20:54.370Z,7.82
2022-08-20T18:23:28.574Z,7.53
2022-08-20T18:26:02.673Z,4.88
2022-08-20T18:28:43.792Z,5.80
2022-08-20T18:31:26.185Z,5.70
2022-08-20T18:33:53.285Z,6.32
2022-08-20T18:36:19.737Z,9.25
2022-08-20T18:39:05.890Z,5.65
2022-08-20T18:41:41.498Z,5.28
2022-08-20T18:44:13.619Z,3.80
2022-08-20T18:47:01.076Z,4.25
2022-08-20T18:49:39.982Z,7.63
2022-08-20T18:52:13.493Z,8.13
2022-08-20T18:54:52.062Z,6.05
2022-08-20T18:57:40.728Z,11.20
2022-08-20T19:00:14.533Z,7.18
2022-08-20T19:03:09.732Z,7.15
2022-08-20T19:05:45.310Z,11.25
2022-08-20T19:08:24.826Z,5.55
2022-08-20T19:10:51.493Z,5.70
2022-08-20T19:13:39.216Z,10.35
2022-08-20T19:16:18.767Z,7.40
2022-08-20T19:18:54.167Z,4.47
2022-08-20T19:21:26.370Z,9.30
2022-08-20T19:23:57.162Z,9.13
2022-08-20T19:26:27.677Z,7.63
2022-08-20T19:28:59.134Z,6.03
2022-08-20T19:31:31.587Z,8.88
2022-08-20T19:34:20.233Z,7.53
2022-08-20T19:37:27.624Z,9.10
2022-08-20T19:39:50.894Z,6.85
2022-08-20T19:42:25.172Z,8.30
2022-08-20T19:44:56.789Z,9.38
2022-08-20T19:47:31.648Z,7.78
2022-08-20T19:50:13.494Z,7.73
2022-08-20T19:52:56.571Z,8.70
2022-08-20T19:55:30.679Z,7.90
2022-08-20T19:58:04.552Z,10.75
2022-08-20T20:00:41.079Z,10.70
2022-08-20T20:03:14.168Z,7.13
2022-08-20T20:05:54.414Z,13.48
2022-08-20T20:08:22.798Z,11.57
2022-08-20T20:10:58.810Z,12.27
2022-08-20T20:13:29.692Z,10.35
2022-08-20T20:16:03.625Z,8.87
2022-08-20T20:18:35.370Z,6.85
2022-08-20T20:21:24.173Z,11.77
2022-08-20T20:23:54.994Z,8.05
2022-08-20T20:26:21.732Z,10.40
2022-08-20T20:28:54.583Z,10.70
2022-08-20T20:31:28.011Z,12.95
2022-08-20T20:33:58.404Z,18.60
2022-08-20T20:36:39.445Z,17.20
2022-08-20T20:39:30.913Z,9.10
2022-08-20T20:41:59.751Z,10.80
2022-08-20T20:44:38.578Z,9.25
2022-08-20T20:47:08.238Z,12.52
2022-08-20T20:49:54.287Z,11.75
2022-08-20T20:52:31.075Z,15.45
2022-08-20T20:55:09.955Z,9.87
2022-08-20T20:57:38.522Z,10.05
2022-08-20T21:00:11.223Z,11.88
2022-08-20T21:02:38.109Z,10.40
2022-08-20T21:05:05.326Z,9.00
2022-08-20T21:07:32.120Z,11.93
2022-08-20T21:09:59.118Z,9.70
2022-08-20T21:12:25.821Z,9.20
2022-08-20T21:14:52.450Z,9.68
2022-08-20T21:17:22.824Z,11.95
2022-08-20T21:19:51.153Z,9.07
2022-08-20T21:22:19.586Z,11.07
2022-08-20T21:24:48.490Z,8.50
2022-08-20T21:27:15.858Z,11.77
2022-08-20T21:29:42.451Z,9.18
2022-08-20T21:32:09.419Z,7.60
2022-08-20T21:34:39.547Z,8.40
2022-08-20T21:37:06.217Z,8.77
2022-08-20T21:39:32.848Z,9.80
2022-08-20T21:42:02.361Z,8.73
2022-08-20T21:44:31.758Z,13.23
2022-08-20T21:46:59.632Z,9.10
2022-08-20T21:49:28.504Z,6.95
2022-08-20T21:51:55.828Z,10.75
2022-08-20T21:54:24.455Z,9.90
2022-08-20T21:56:56.471Z,7.03
2022-08-20T21:59:24.678Z,7.85
2022-08-20T22:01:51.915Z,8.57
2022-08-20T22:04:18.762Z,9.15
2022-08-20T22:06:46.112Z,9.07
2022-08-20T22:09:13.665Z,10.43
2022-08-20T22:11:40.763Z,10.63
2022-08-20T22:14:10.258Z,9.73
2022-08-20T22:16:37.196Z,8.43
2022-08-20T22:19:15.359Z,7.78
2022-08-20T22:21:42.638Z,7.70
2022-08-20T22:24:10.554Z,7.60
2022-08-20T22:26:39.048Z,8.20
2022-08-20T22:29:08.638Z,8.35
2022-08-20T22:31:37.828Z,7.30
2022-08-20T22:34:05.527Z,6.90
2022-08-20T22:36:33.212Z,10.23
2022-08-20T22:39:00.185Z,10.18
2022-08-20T22:41:27.059Z,10.07
2022-08-20T22:43:56.970Z,8.32
2022-08-20T22:46:30.510Z,5.93
2022-08-20T22:48:57.378Z,11.35
2022-08-20T22:51:31.012Z,9.18
2022-08-20T22:53:59.210Z,8.55
2022-08-20T22:56:26.819Z,8.55
2022-08-20T22:58:59.081Z,10.73
2022-08-20T23:01:27.233Z,8.75
2022-08-20T23:03:55.406Z,7.75
2022-08-20T23:06:23.364Z,6.68
2022-08-20T23:08:50.101Z,6.32
2022-08-20T23:11:16.860Z,7.73
2022-08-20T23:13:44.452Z,12.07
2022-08-20T23:16:11.117Z,8.45
2022-08-20T23:18:37.729Z,7.45
2022-08-20T23:21:04.351Z,10.48
2022-08-20T23:23:31.227Z,8.23
2022-08-20T23:25:58.292Z,8.30
2022-08-20T23:28:26.111Z,5.95
2022-08-20T23:30:53.229Z,6.65
2022-08-20T23:33:21.320Z,9.95
2022-08-20T23:35:48.368Z,4.97
2022-08-20T23:38:15.240Z,8.80
2022-08-20T23:40:42.628Z,8.27
2022-08-20T23:43:09.336Z,9.10
2022-08-20T23:45:39.686Z,6.93
2022-08-20T23:48:07.871Z,6.73
2022-08-20T23:50:34.676Z,9.75
2022-08-20T23:53:01.571Z,8.55
2022-08-20T23:55:28.180Z,12.07
2022-08-20T23:57:54.873Z,7.32
